Time;durP1;ratioP1;P1;durP2;ratioP2;P2;SDS_P1;SDS_P2;PMS_P1;PMS_P2;Temp;Humidity;BMP_temperature;BMP_pressure;BME280_temperature;BME280_humidity;BME280_pressure;Samples;Min_cycle;Max_cycle;Signal;HPM_P1;HPM_P2
2022/04/16 00:04:21;;;;;;;0.00;0.00;;;;;;;8.38;67.45;103063.31;10456986;28;20095;-80
2022/04/16 00:09:23;;;;;;;0.00;0.00;;;;;;;7.78;70.57;103062.56;10457113;28;20559;-80
2022/04/16 00:14:25;;;;;;;0.00;0.00;;;;;;;7.54;70.47;103062.56;10416800;28;20060;-80
2022/04/16 00:19:28;;;;;;;0.00;0.00;;;;;;;7.57;70.18;103051.63;10406788;28;20481;-80
2022/04/16 00:24:30;;;;;;;0.00;0.00;;;;;;;7.50;71.12;103055.41;10401596;28;20156;-80
2022/04/16 00:29:31;;;;;;;0.00;0.00;;;;;;;7.61;70.03;103059.66;10403469;28;20148;-82
2022/04/16 00:34:34;;;;;;;0.00;0.00;;;;;;;8.02;68.71;103055.72;10399441;28;20036;-82
2022/04/16 00:39:36;;;;;;;0.00;0.00;;;;;;;8.77;67.70;103058.31;10396970;28;20134;-82
2022/04/16 00:44:37;;;;;;;0.00;0.00;;;;;;;8.51;66.39;103059.97;10392999;28;20477;-81
2022/04/16 00:49:39;;;;;;;0.00;0.00;;;;;;;8.10;66.69;103056.25;10398626;28;20073;-81
2022/04/16 00:54:40;;;;;;;0.00;0.00;;;;;;;7.69;67.99;103064.47;10391253;28;20069;-81
2022/04/16 00:59:42;;;;;;;0.00;0.00;;;;;;;7.39;66.92;103071.69;10395103;28;20053;-82
2022/04/16 01:04:43;;;;;;;0.00;0.00;;;;;;;6.75;67.56;103068.63;10397127;28;20030;-81
2022/04/16 01:09:45;;;;;;;0.00;0.00;;;;;;;7.16;67.51;103078.56;10400765;28;20133;-81
2022/04/16 01:14:47;;;;;;;0.00;0.00;;;;;;;7.11;67.06;103072.22;10392952;28;20091;-82
2022/04/16 01:19:48;;;;;;;0.00;0.00;;;;;;;7.03;67.76;103075.88;10388277;28;20049;-82
2022/04/16 01:24:50;;;;;;;0.00;0.00;;;;;;;6.99;67.14;103075.63;10394409;28;20061;-81
2022/04/16 01:29:53;;;;;;;0.00;0.00;;;;;;;6.35;69.17;103071.56;10395578;28;20532;-81
2022/04/16 01:34:55;;;;;;;0.00;0.00;;;;;;;6.22;69.74;103074.81;10385754;28;20103;-81
2022/04/16 01:39:58;;;;;;;0.00;0.00;;;;;;;6.38;69.75;103086.28;10394325;28;20049;-81
2022/04/16 01:45:00;;;;;;;0.00;0.00;;;;;;;6.55;70.48;103091.06;10398591;28;20124;-81
2022/04/16 01:50:05;;;;;;;0.00;0.00;;;;;;;6.15;70.13;103103.28;10407022;28;20057;-82
2022/04/16 01:55:07;;;;;;;0.00;0.00;;;;;;;6.25;70.17;103100.69;10395112;28;20053;-81
2022/04/16 02:00:12;;;;;;;0.00;0.00;;;;;;;6.76;69.03;103101.16;10390939;28;20045;-81
2022/04/16 02:05:14;;;;;;;0.00;0.00;;;;;;;5.65;70.24;103114.66;10391317;28;20045;-81
2022/04/16 02:10:16;;;;;;;0.00;0.00;;;;;;;5.29;73.31;103115.97;10395969;28;20049;-80
2022/04/16 02:15:18;;;;;;;0.00;0.00;;;;;;;5.36;73.82;103123.38;10408652;28;20041;-80
2022/04/16 02:20:20;;;;;;;0.00;0.00;;;;;;;6.22;70.90;103120.03;10402406;28;20077;-81
2022/04/16 02:25:25;;;;;;;0.00;0.00;;;;;;;6.21;70.95;103119.16;10405918;28;20106;-80
2022/04/16 02:30:30;;;;;;;0.00;0.00;;;;;;;6.85;69.29;103117.25;10421166;28;20077;-81
2022/04/16 02:35:37;;;;;;;0.00;0.00;;;;;;;6.50;69.50;103120.53;10410777;28;20426;-81
2022/04/16 02:40:38;;;;;;;0.00;0.00;;;;;;;6.85;67.35;103122.38;10416709;28;20050;-80
2022/04/16 02:51:00;;;;;;;0.00;0.00;;;;;;;6.87;67.92;103125.97;10420378;28;20045;-80
2022/04/16 02:56:02;;;;;;;0.00;0.00;;;;;;;6.41;68.79;103123.25;10408170;28;20069;-81
2022/04/16 03:01:04;;;;;;;0.00;0.00;;;;;;;5.99;70.22;103137.91;10394029;28;20049;-78
2022/04/16 03:06:05;;;;;;;0.00;0.00;;;;;;;6.23;69.49;103132.06;10375653;28;20145;-79
2022/04/16 03:11:07;;;;;;;0.00;0.00;;;;;;;6.19;71.90;103138.59;10380123;28;20039;-79
2022/04/16 03:21:28;;;;;;;0.00;0.00;;;;;;;7.01;68.31;103151.75;10375172;28;20053;-79
2022/04/16 03:26:30;;;;;;;0.93;0.77;;;;;;;6.76;68.28;103142.16;10374613;28;20045;-79
2022/04/16 03:31:32;;;;;;;0.00;0.00;;;;;;;6.84;67.83;103146.22;10386326;28;20481;-79
2022/04/16 03:36:34;;;;;;;0.10;0.10;;;;;;;6.57;67.72;103156.09;10387530;28;20137;-79
2022/04/16 03:41:35;;;;;;;0.00;0.00;;;;;;;6.77;66.98;103154.19;10375232;28;20034;-78
2022/04/16 03:46:37;;;;;;;0.00;0.00;;;;;;;5.65;69.90;103164.91;10393953;28;20046;-78
2022/04/16 03:51:38;;;;;;;0.00;0.00;;;;;;;5.23;72.51;103154.69;10380854;28;20073;-78
2022/04/16 04:02:03;;;;;;;0.00;0.00;;;;;;;6.13;69.50;103171.38;10377522;28;20041;-78
2022/04/16 04:07:04;;;;;;;0.00;0.00;;;;;;;5.90;69.97;103183.19;10377940;28;20042;-78
2022/04/16 04:12:10;;;;;;;0.00;0.00;;;;;;;5.36;71.70;103188.97;10377129;28;20606;-79
2022/04/16 04:17:13;;;;;;;0.00;0.00;;;;;;;5.14;73.16;103194.78;10380869;28;20043;-78
2022/04/16 04:22:16;;;;;;;0.00;0.00;;;;;;;5.10;72.63;103197.88;10381394;28;20034;-79
2022/04/16 04:27:17;;;;;;;0.00;0.00;;;;;;;4.72;72.91;103198.94;10387105;28;20425;-78
2022/04/16 04:32:19;;;;;;;0.00;0.00;;;;;;;5.04;72.13;103197.34;10382267;28;20525;-78
2022/04/16 04:37:21;;;;;;;0.00;0.00;;;;;;;6.08;70.30;103204.28;10388265;28;20057;-78
2022/04/16 04:42:30;;;;;;;0.00;0.00;;;;;;;5.96;69.15;103209.25;10395557;28;20148;-79
2022/04/16 04:47:32;;;;;;;0.00;0.00;;;;;;;6.30;70.51;103217.13;10373849;28;20042;-79
2022/04/16 04:52:36;;;;;;;0.00;0.00;;;;;;;6.37;70.72;103217.66;10371123;28;20305;-79
2022/04/16 04:57:39;;;;;;;0.00;0.00;;;;;;;5.88;71.76;103215.41;10378006;28;20053;-79
2022/04/16 05:02:45;;;;;;;0.00;0.00;;;;;;;5.70;72.69;103220.78;10369383;28;20073;-78
2022/04/16 05:07:46;;;;;;;0.00;0.00;;;;;;;5.67;73.70;103230.78;10409669;28;20497;-80
2022/04/16 05:12:48;;;;;;;0.00;0.00;;;;;;;5.84;74.39;103238.97;10397110;28;20474;-78
2022/04/16 05:17:50;;;;;;;0.00;0.00;;;;;;;6.18;75.07;103246.88;10376720;28;20061;-78
2022/04/16 05:22:51;;;;;;;0.00;0.00;;;;;;;6.40;75.21;103256.28;10383029;28;20049;-78
2022/04/16 05:27:53;;;;;;;0.00;0.00;;;;;;;6.69;75.23;103260.28;10398420;28;20114;-79
2022/04/16 05:32:56;;;;;;;0.00;0.00;;;;;;;6.93;75.08;103254.56;10384630;28;20065;-79
2022/04/16 05:38:01;;;;;;;0.00;0.00;;;;;;;7.12;74.73;103267.16;10382053;28;20044;-79
2022/04/16 05:43:05;;;;;;;0.00;0.00;;;;;;;7.52;74.03;103261.63;10378857;28;20474;-79
2022/04/16 05:48:07;;;;;;;0.00;0.00;;;;;;;7.55;74.66;103266.09;10406450;28;20050;-80
2022/04/16 05:53:11;;;;;;;0.00;0.00;;;;;;;8.04;73.75;103272.34;10397660;28;20150;-78
2022/04/16 05:58:13;;;;;;;0.00;0.00;;;;;;;8.02;74.00;103279.06;10397049;28;20053;-79
2022/04/16 06:03:15;;;;;;;0.00;0.00;;;;;;;8.37;73.50;103279.88;10387378;28;20445;-80
2022/04/16 06:08:17;;;;;;;0.55;0.55;;;;;;;8.44;72.67;103279.56;10388145;28;20049;-80
2022/04/16 06:13:18;;;;;;;0.00;0.00;;;;;;;8.82;72.18;103283.13;10391548;28;20132;-78
2022/04/16 06:18:20;;;;;;;0.13;0.13;;;;;;;9.06;71.92;103278.81;10398043;28;20076;-79
2022/04/16 06:23:23;;;;;;;0.43;0.43;;;;;;;9.00;72.22;103280.97;10403991;28;20069;-78
2022/04/16 06:28:25;;;;;;;0.22;0.22;;;;;;;9.20;72.04;103277.22;10375092;28;20057;-79
2022/04/16 06:33:26;;;;;;;0.00;0.00;;;;;;;9.77;71.61;103282.78;10395739;28;20484;-78
2022/04/16 06:38:29;;;;;;;0.00;0.00;;;;;;;9.94;70.13;103283.94;10397653;28;20049;-79
2022/04/16 06:43:31;;;;;;;0.00;0.00;;;;;;;10.19;69.87;103290.69;10395641;28;20053;-79
2022/04/16 06:48:35;;;;;;;0.00;0.00;;;;;;;10.15;69.80;103289.59;10391541;28;20049;-79
2022/04/16 06:53:37;;;;;;;1.70;1.10;;;;;;;9.94;70.15;103283.94;10409236;28;20103;-78
2022/04/16 06:58:38;;;;;;;0.00;0.00;;;;;;;11.47;67.90;103277.25;10395175;28;20447;-80
2022/04/16 07:03:40;;;;;;;2.40;1.10;;;;;;;11.62;67.25;103273.00;10388300;28;20540;-79
2022/04/16 07:08:41;;;;;;;1.38;1.20;;;;;;;11.64;65.68;103265.34;10404159;28;20054;-79
2022/04/16 07:13:43;;;;;;;0.10;0.10;;;;;;;12.09;63.64;103275.75;10393923;28;20069;-80
2022/04/16 07:18:45;;;;;;;1.10;0.77;;;;;;;11.84;65.14;103274.25;10398568;28;20565;-77
2022/04/16 07:23:47;;;;;;;0.40;0.30;;;;;;;13.29;60.74;103282.31;10413809;28;20046;-79
2022/04/16 07:28:48;;;;;;;0.03;0.03;;;;;;;14.05;57.76;103281.03;10385394;28;20135;-79
2022/04/16 07:33:50;;;;;;;0.00;0.00;;;;;;;13.59;59.96;103273.53;10383688;28;20088;-80
2022/04/16 07:38:52;;;;;;;0.32;0.32;;;;;;;13.55;59.28;103280.25;10395058;28;20053;-78
2022/04/16 07:43:54;;;;;;;0.00;0.00;;;;;;;14.39;57.55;103274.91;10393692;28;20049;-79
2022/04/16 07:48:59;;;;;;;1.60;0.43;;;;;;;14.18;57.83;103284.22;10390029;28;20463;-78
2022/04/16 07:54:01;;;;;;;1.70;1.42;;;;;;;13.33;58.56;103294.63;10397300;28;20083;-79
2022/04/16 07:59:03;;;;;;;0.00;0.00;;;;;;;13.82;55.77;103295.41;10385011;28;20045;-80
2022/04/16 08:04:04;;;;;;;0.28;0.28;;;;;;;14.30;55.75;103294.31;10401586;28;20818;-79
2022/04/16 08:09:07;;;;;;;0.30;0.30;;;;;;;13.90;55.70;103299.28;10393219;28;20048;-79
2022/04/16 08:14:08;;;;;;;0.00;0.00;;;;;;;14.93;54.06;103304.25;10400662;28;20037;-79
2022/04/16 08:19:10;;;;;;;0.00;0.00;;;;;;;13.96;55.25;103299.59;10414483;28;20037;-79
2022/04/16 08:24:22;;;;;;;0.00;0.00;;;;;;;15.23;53.08;103292.63;10390524;28;20409;-80
2022/04/16 08:29:24;;;;;;;0.00;0.00;;;;;;;15.32;54.08;103306.84;10386550;28;20316;-80
2022/04/16 08:34:25;;;;;;;0.00;0.00;;;;;;;16.78;52.11;103301.69;10397296;28;20074;-80
2022/04/16 08:39:28;;;;;;;0.20;0.20;;;;;;;16.69;50.63;103298.72;10383768;28;20396;-80
2022/04/16 08:44:31;;;;;;;0.00;0.00;;;;;;;17.08;49.70;103303.69;10385884;28;20061;-80
2022/04/16 08:49:34;;;;;;;0.40;0.40;;;;;;;16.50;49.82;103310.97;10406469;28;20563;-80
2022/04/16 08:54:37;;;;;;;0.00;0.00;;;;;;;16.85;48.77;103314.94;10410257;28;20069;-80
2022/04/16 08:59:38;;;;;;;0.08;0.08;;;;;;;16.59;49.45;103310.47;10386955;28;20049;-80
2022/04/16 09:04:40;;;;;;;0.30;0.30;;;;;;;17.56;45.80;103310.63;10409876;28;20174;-80
2022/04/16 09:09:42;;;;;;;1.55;0.25;;;;;;;15.58;48.17;103313.19;10401936;28;20048;-80
2022/04/16 09:14:46;;;;;;;0.85;0.60;;;;;;;16.38;45.53;103307.91;10405910;28;20575;-79
2022/04/16 09:19:55;;;;;;;0.00;0.00;;;;;;;17.01;44.99;103301.69;10410652;28;20562;-80
2022/04/16 09:24:56;;;;;;;0.20;0.20;;;;;;;17.69;43.37;103296.28;10406481;28;20046;-79
2022/04/16 09:30:04;;;;;;;0.00;0.00;;;;;;;18.06;41.66;103300.16;10415020;28;20567;-77
2022/04/16 09:35:08;;;;;;;0.22;0.22;;;;;;;16.40;45.48;103303.66;10398693;28;20192;-78
2022/04/16 09:40:35;;;;;;;0.45;0.45;;;;;;;18.27;43.15;103293.00;10404263;28;20045;-79
2022/04/16 09:45:41;;;;;;;0.00;0.00;;;;;;;18.32;41.44;103287.09;10430874;28;20047;-79
2022/04/16 09:50:44;;;;;;;0.00;0.00;;;;;;;18.14;42.10;103286.50;10439400;28;20061;-79
2022/04/16 09:55:46;;;;;;;0.63;0.20;;;;;;;18.88;40.00;103278.31;10436197;28;20049;-79
2022/04/16 10:00:49;;;;;;;0.25;0.20;;;;;;;18.78;40.41;103289.34;10403204;28;20112;-80
2022/04/16 10:06:08;;;;;;;0.40;0.20;;;;;;;16.69;41.01;103290.91;10397036;28;20129;-78
2022/04/16 10:11:19;;;;;;;0.00;0.00;;;;;;;18.61;39.15;103288.84;10397491;28;20073;-79
2022/04/16 10:16:31;;;;;;;0.45;0.45;;;;;;;18.16;37.70;103282.22;10397739;28;20115;-79
2022/04/16 10:21:34;;;;;;;0.05;0.05;;;;;;;18.54;36.17;103279.94;10396722;28;20049;-77
2022/04/16 10:26:43;;;;;;;0.10;0.10;;;;;;;18.26;38.04;103284.28;10392985;28;20038;-77
2022/04/16 10:31:52;;;;;;;0.00;0.00;;;;;;;19.45;36.38;103268.63;10381106;28;20041;-76
2022/04/16 10:36:54;;;;;;;1.65;0.70;;;;;;;19.22;39.81;103270.59;10391751;28;20046;-76
2022/04/16 10:42:04;;;;;;;0.00;0.00;;;;;;;19.05;39.53;103267.50;10390619;28;20132;-77
2022/04/16 10:47:06;;;;;;;0.17;0.13;;;;;;;19.08;36.52;103259.78;10401151;28;20437;-80
2022/04/16 10:52:23;;;;;;;0.10;0.10;;;;;;;19.32;38.20;103260.41;10407295;28;20132;-82
2022/04/16 10:57:28;;;;;;;0.38;0.20;;;;;;;18.06;36.05;103271.47;10396801;28;20040;-78
2022/04/16 11:02:35;;;;;;;0.10;0.10;;;;;;;17.41;35.86;103253.63;10390347;28;20500;-77
2022/04/16 11:07:39;;;;;;;0.40;0.30;;;;;;;18.22;36.70;103251.09;10408191;28;20045;-78
2022/04/16 11:12:40;;;;;;;0.25;0.17;;;;;;;19.17;32.05;103265.25;10407080;28;20045;-78
2022/04/16 11:17:42;;;;;;;0.35;0.35;;;;;;;17.20;34.88;103276.31;10401019;28;20532;-77
2022/04/16 11:22:46;;;;;;;0.45;0.45;;;;;;;17.68;35.23;103278.91;10386220;28;20049;-77
2022/04/16 11:38:32;;;;;;;0.00;0.00;;;;;;;19.10;27.21;103266.81;10406844;28;20057;-77
2022/04/16 11:43:38;;;;;;;0.00;0.00;;;;;;;19.19;27.68;103271.38;10390316;28;20049;-77
2022/04/16 11:48:46;;;;;;;0.40;0.40;;;;;;;19.16;30.78;103263.47;10406310;28;20073;-79
2022/04/16 11:53:52;;;;;;;0.00;0.00;;;;;;;19.11;29.27;103257.22;10418587;28;20038;-78
2022/04/16 11:58:54;;;;;;;0.22;0.20;;;;;;;18.58;28.41;103255.69;10416600;28;20037;-78
2022/04/16 12:04:06;;;;;;;0.20;0.00;;;;;;;18.57;30.78;103259.16;10410858;28;20476;-78
2022/04/16 12:09:11;;;;;;;0.00;0.00;;;;;;;19.55;28.99;103244.47;10414485;28;20458;-78
2022/04/16 12:14:19;;;;;;;0.17;0.15;;;;;;;18.42;28.53;103263.91;10418823;28;20037;-76
2022/04/16 12:19:21;;;;;;;0.87;0.73;;;;;;;17.65;29.09;103265.75;10435449;28;20075;-76
2022/04/16 12:24:29;;;;;;;0.00;0.00;;;;;;;18.26;27.95;103255.59;10451629;28;20523;-76
2022/04/16 12:29:31;;;;;;;0.00;0.00;;;;;;;18.76;30.29;103246.63;10417547;28;20412;-75
2022/04/16 12:34:34;;;;;;;0.30;0.10;;;;;;;18.43;29.07;103248.28;10415211;28;20378;-75
2022/04/16 12:39:35;;;;;;;0.17;0.15;;;;;;;18.70;29.08;103245.63;10391421;28;20068;-77
2022/04/16 12:44:37;;;;;;;0.20;0.20;;;;;;;18.05;30.49;103248.88;10383102;28;20128;-75
2022/04/16 12:49:38;;;;;;;0.00;0.00;;;;;;;18.01;30.50;103246.97;10390504;28;20492;-75
2022/04/16 12:54:40;;;;;;;0.10;0.10;;;;;;;17.84;27.53;103249.00;10402175;28;20041;-77
2022/04/16 12:59:41;;;;;;;0.00;0.00;;;;;;;17.62;26.73;103244.78;10403097;28;20119;-76
2022/04/16 13:04:43;;;;;;;0.08;0.05;;;;;;;18.63;28.94;103237.53;10397132;28;20112;-75
2022/04/16 13:09:44;;;;;;;0.00;0.00;;;;;;;17.90;27.65;103250.94;10389903;28;20132;-76
2022/04/16 13:14:47;;;;;;;0.17;0.10;;;;;;;17.51;27.69;103251.34;10386997;28;20555;-79
2022/04/16 13:19:48;;;;;;;0.35;0.35;;;;;;;18.14;25.77;103244.75;10405617;28;20139;-75
2022/04/16 13:24:51;;;;;;;1.65;0.22;;;;;;;18.03;27.41;103236.59;10402471;28;20033;-76
2022/04/16 13:29:53;;;;;;;0.00;0.00;;;;;;;17.86;26.86;103222.97;10400770;28;20045;-76
2022/04/16 13:34:58;;;;;;;0.30;0.25;;;;;;;17.62;28.32;103221.31;10406778;28;20045;-75
2022/04/16 13:45:22;;;;;;;0.70;0.10;;;;;;;17.20;29.46;103200.78;10415923;28;20042;-75
2022/04/16 13:50:24;;;;;;;0.00;0.00;;;;;;;17.81;27.89;103193.25;10405365;28;20115;-76
2022/04/16 13:55:26;;;;;;;3.13;1.30;;;;;;;17.58;29.29;103198.59;10416898;28;20508;-78
2022/04/16 14:00:27;;;;;;;0.52;0.52;;;;;;;18.08;27.21;103183.72;10395168;28;20412;-76
2022/04/16 14:05:43;;;;;;;0.45;0.20;;;;;;;17.76;27.43;103191.38;10397269;28;20057;-78
2022/04/16 14:10:45;;;;;;;0.22;0.22;;;;;;;18.04;27.67;103175.75;10396944;28;20428;-76
2022/04/16 14:15:49;;;;;;;2.97;1.45;;;;;;;17.54;27.07;103187.19;10399130;28;20405;-77
2022/04/16 14:20:52;;;;;;;0.17;0.17;;;;;;;17.44;27.09;103178.19;10405514;28;20136;-77
2022/04/16 14:25:54;;;;;;;0.00;0.00;;;;;;;16.97;27.75;103177.41;10403584;28;20091;-78
2022/04/16 14:30:57;;;;;;;0.00;0.00;;;;;;;17.03;26.85;103180.22;10393776;28;20563;-77
2022/04/16 14:35:58;;;;;;;0.15;0.15;;;;;;;17.50;26.87;103179.22;10407103;28;20038;-76
2022/04/16 14:41:13;;;;;;;0.17;0.17;;;;;;;16.70;26.68;103177.25;10404716;28;20141;-75
2022/04/16 14:46:15;;;;;;;0.00;0.00;;;;;;;16.94;27.40;103179.91;10400628;28;20041;-76
2022/04/16 14:51:17;;;;;;;0.10;0.10;;;;;;;17.55;28.04;103175.03;10408752;28;20060;-76
2022/04/16 14:56:18;;;;;;;0.00;0.00;;;;;;;17.15;27.17;103181.50;10400784;28;20124;-76
2022/04/16 15:01:20;;;;;;;0.08;0.08;;;;;;;17.21;27.01;103173.91;10404130;28;20118;-76
2022/04/16 15:06:22;;;;;;;0.00;0.00;;;;;;;16.87;26.47;103170.97;10419931;28;20049;-77
2022/04/16 15:11:23;;;;;;;0.45;0.30;;;;;;;17.07;28.36;103171.69;10421486;28;20083;-77
2022/04/16 15:16:28;;;;;;;0.57;0.20;;;;;;;17.78;28.42;103149.72;10426758;28;20044;-77
2022/04/16 15:21:29;;;;;;;0.10;0.00;;;;;;;16.86;27.06;103155.28;10414490;28;20126;-76
2022/04/16 15:26:31;;;;;;;0.00;0.00;;;;;;;17.56;26.73;103135.09;10421262;28;20131;-80
2022/04/16 15:31:36;;;;;;;2.20;2.00;;;;;;;16.57;28.79;103139.50;10428971;28;20490;-77
2022/04/16 15:36:38;;;;;;;0.00;0.00;;;;;;;16.39;28.27;103131.88;10400533;28;20049;-76
2022/04/16 15:41:39;;;;;;;0.00;0.00;;;;;;;16.56;26.24;103128.19;10402529;28;20469;-78
2022/04/16 15:46:41;;;;;;;0.00;0.00;;;;;;;16.71;29.51;103117.47;10410663;28;20491;-76
2022/04/16 15:51:43;;;;;;;0.00;0.00;;;;;;;16.27;26.68;103114.13;10397607;28;20129;-77
2022/04/16 15:56:44;;;;;;;0.00;0.00;;;;;;;16.39;29.58;103114.56;10399285;28;20103;-75
2022/04/16 16:01:46;;;;;;;0.00;0.00;;;;;;;16.58;28.79;103102.22;10399313;28;20041;-76
2022/04/16 16:06:48;;;;;;;0.00;0.00;;;;;;;16.22;28.15;103102.63;10416324;28;20052;-77
2022/04/16 16:11:49;;;;;;;0.00;0.00;;;;;;;16.25;27.63;103092.34;10423675;28;20042;-76
2022/04/16 16:16:51;;;;;;;0.00;0.00;;;;;;;16.90;29.58;103097.28;10407377;28;20046;-76
2022/04/16 16:21:52;;;;;;;0.00;0.00;;;;;;;16.69;32.13;103087.88;10411716;28;20049;-76
2022/04/16 16:26:54;;;;;;;0.00;0.00;;;;;;;16.45;28.96;103083.56;10403336;28;20076;-76
2022/04/16 16:31:56;;;;;;;0.00;0.00;;;;;;;16.02;30.48;103076.78;10407733;28;20052;-76
2022/04/16 16:36:57;;;;;;;0.00;0.00;;;;;;;16.44;30.07;103081.78;10388808;28;20502;-77
2022/04/16 16:42:00;;;;;;;0.00;0.00;;;;;;;16.35;29.40;103071.03;10393102;28;20048;-76
2022/04/16 16:47:03;;;;;;;0.00;0.00;;;;;;;16.14;31.08;103072.03;10390454;28;20124;-76
2022/04/16 16:52:05;;;;;;;0.00;0.00;;;;;;;15.90;29.71;103071.13;10396325;28;20085;-76
2022/04/16 16:57:06;;;;;;;0.00;0.00;;;;;;;15.79;30.43;103065.44;10395291;28;20042;-77
2022/04/16 17:07:32;;;;;;;0.00;0.00;;;;;;;16.06;30.95;103063.03;10395974;28;20408;-76
2022/04/16 17:12:38;;;;;;;0.00;0.00;;;;;;;15.57;31.12;103058.53;10399834;28;20045;-77
2022/04/16 17:23:01;;;;;;;;;;;;;;;15.22;33.52;103070.16;10408843;28;20044;-75
2022/04/16 17:28:03;;;;;;;1.75;1.65;;;;;;;15.13;33.00;103085.34;10403217;28;19920;-76
2022/04/16 17:33:06;;;;;;;0.55;0.55;;;;;;;15.25;32.47;103073.69;10409268;28;20120;-75
2022/04/16 17:38:08;;;;;;;0.00;0.00;;;;;;;15.06;35.15;103078.13;10399084;28;20045;-75
2022/04/16 17:43:10;;;;;;;0.00;0.00;;;;;;;15.02;33.35;103087.50;10396264;28;20060;-76
2022/04/16 17:48:12;;;;;;;0.00;0.00;;;;;;;15.06;33.17;103084.19;10392617;28;20061;-76
2022/04/16 17:53:17;;;;;;;0.98;0.90;;;;;;;14.39;33.74;103084.72;10392912;28;20044;-75
2022/04/16 17:58:19;;;;;;;2.28;2.08;;;;;;;14.01;35.79;103089.91;10392782;28;20053;-76
2022/04/16 18:03:20;;;;;;;0.00;0.00;;;;;;;14.04;34.89;103091.72;10391593;28;20497;-76
2022/04/16 18:08:23;;;;;;;0.00;0.00;;;;;;;13.91;35.55;103093.75;10399748;28;20535;-75
2022/04/16 18:13:25;;;;;;;0.00;0.00;;;;;;;13.65;35.83;103105.47;10392273;28;20176;-75
2022/04/16 18:18:28;;;;;;;0.00;0.00;;;;;;;13.15;36.38;103112.47;10391431;28;20132;-76
2022/04/16 18:23:30;;;;;;;0.00;0.00;;;;;;;13.26;35.82;103131.13;10391427;28;20057;-76
2022/04/16 18:28:32;;;;;;;0.00;0.00;;;;;;;12.97;35.66;103128.84;10392232;28;20073;-75
2022/04/16 18:33:33;;;;;;;0.00;0.00;;;;;;;12.88;36.45;103130.94;10399650;28;20085;-76
2022/04/16 18:38:35;;;;;;;1.02;0.68;;;;;;;12.70;36.29;103124.00;10394364;28;20137;-75
2022/04/16 18:43:37;;;;;;;0.00;0.00;;;;;;;12.64;35.68;103127.97;10391925;28;20575;-75
2022/04/16 18:48:39;;;;;;;0.00;0.00;;;;;;;12.79;36.19;103138.22;10392493;28;20077;-74
2022/04/16 18:53:40;;;;;;;0.00;0.00;;;;;;;12.47;36.24;103140.00;10395004;28;20096;-74
2022/04/16 18:58:43;;;;;;;0.00;0.00;;;;;;;12.42;36.34;103139.75;10399513;28;20693;-77
2022/04/16 19:09:04;;;;;;;0.00;0.00;;;;;;;11.93;37.91;103150.81;10391928;28;20081;-76
2022/04/16 19:14:08;;;;;;;0.00;0.00;;;;;;;11.52;40.38;103157.06;10391409;28;20121;-76
2022/04/16 19:19:40;;;;;;;0.00;0.00;;;;;;;11.08;42.27;103154.53;10390476;28;20128;-76
2022/04/16 19:24:43;;;;;;;0.00;0.00;;;;;;;11.07;41.65;103154.44;10390859;28;20046;-76
2022/04/16 19:29:45;;;;;;;0.00;0.00;;;;;;;10.71;42.44;103157.47;10402573;28;20120;-76
2022/04/16 19:34:47;;;;;;;0.00;0.00;;;;;;;10.73;42.49;103155.88;10399235;28;20050;-76
2022/04/16 19:39:50;;;;;;;0.00;0.00;;;;;;;10.51;42.85;103152.75;10396432;28;20445;-76
2022/04/16 19:44:51;;;;;;;0.00;0.00;;;;;;;10.53;42.95;103156.34;10400716;28;20140;-76
2022/04/16 19:49:53;;;;;;;0.00;0.00;;;;;;;10.43;41.93;103142.88;10405045;28;20544;-76
2022/04/16 19:54:54;;;;;;;0.00;0.00;;;;;;;10.42;41.63;103146.25;10395971;28;20129;-76
2022/04/16 19:59:59;;;;;;;0.00;0.00;;;;;;;10.33;42.76;103145.63;10395715;28;20132;-76
2022/04/16 20:05:01;;;;;;;0.00;0.00;;;;;;;10.33;42.88;103140.47;10397284;28;20500;-76
2022/04/16 20:15:26;;;;;;;;;;;;;;;10.15;43.28;103133.38;10404273;28;20095;-75
2022/04/16 20:20:31;;;;;;;1.13;1.02;;;;;;;10.04;43.23;103134.34;10393280;28;19995;-75
2022/04/16 20:25:36;;;;;;;0.00;0.00;;;;;;;10.24;41.46;103138.22;10410073;28;20042;-75
2022/04/16 20:30:38;;;;;;;0.00;0.00;;;;;;;10.08;42.35;103141.50;10400753;28;20144;-75
2022/04/16 20:35:39;;;;;;;0.00;0.00;;;;;;;10.00;42.65;103135.84;10403327;28;20050;-75
2022/04/16 20:46:01;;;;;;;0.00;0.00;;;;;;;9.83;43.77;103139.91;10416951;28;20060;-76
2022/04/16 20:56:29;;;;;;;0.00;0.00;;;;;;;9.95;43.56;103128.63;10399387;28;20404;-76
2022/04/16 21:01:31;;;;;;;0.00;0.00;;;;;;;9.94;42.78;103132.00;10402420;28;20076;-76
2022/04/16 21:06:34;;;;;;;0.03;0.03;;;;;;;10.09;42.70;103129.50;10404990;28;20049;-75
2022/04/16 21:11:36;;;;;;;0.00;0.00;;;;;;;10.05;43.26;103120.69;10396104;28;20073;-76
2022/04/16 21:16:38;;;;;;;0.10;0.10;;;;;;;9.88;43.31;103122.19;10406630;28;20388;-76
2022/04/16 21:21:39;;;;;;;0.00;0.00;;;;;;;10.07;42.75;103123.34;10405008;28;20505;-76
2022/04/16 21:26:41;;;;;;;7.97;4.22;;;;;;;9.82;43.63;103114.09;10410088;28;20527;-76
2022/04/16 21:31:42;;;;;;;0.08;0.08;;;;;;;10.00;43.67;103117.81;10410078;28;20508;-76
2022/04/16 21:36:44;;;;;;;0.00;0.00;;;;;;;9.83;43.83;103114.19;10410657;28;20061;-76
2022/04/16 21:41:46;;;;;;;0.00;0.00;;;;;;;9.96;43.37;103112.38;10406247;28;20049;-75
2022/04/16 21:46:47;;;;;;;0.00;0.00;;;;;;;9.71;43.72;103115.97;10403776;28;20049;-75
2022/04/16 21:51:49;;;;;;;0.00;0.00;;;;;;;9.86;43.54;103112.59;10393313;28;20108;-76
2022/04/16 21:56:51;;;;;;;0.00;0.00;;;;;;;9.71;43.79;103118.53;10389527;28;20456;-75
2022/04/16 22:01:53;;;;;;;0.00;0.00;;;;;;;9.58;43.79;103122.00;10396496;28;20050;-76
2022/04/16 22:06:55;;;;;;;0.00;0.00;;;;;;;9.46;44.81;103116.91;10398214;28;20079;-75
2022/04/16 22:11:57;;;;;;;0.00;0.00;;;;;;;9.31;44.97;103116.78;10398354;28;20115;-76
2022/04/16 22:16:59;;;;;;;0.00;0.00;;;;;;;9.51;44.33;103115.53;10391649;28;20440;-75
2022/04/16 22:22:00;;;;;;;0.00;0.00;;;;;;;9.29;45.09;103109.75;10403311;28;20073;-78
2022/04/16 22:27:03;;;;;;;0.20;0.20;;;;;;;9.24;44.68;103113.72;10402962;28;20045;-78
2022/04/16 22:32:08;;;;;;;0.00;0.00;;;;;;;9.34;44.46;103114.44;10419360;28;20128;-78
2022/04/16 22:42:30;;;;;;;0.00;0.00;;;;;;;9.27;44.41;103113.94;10405102;28;20045;-78
2022/04/16 22:47:31;;;;;;;0.00;0.00;;;;;;;9.23;45.11;103106.78;10405869;28;20278;-78
2022/04/16 22:52:33;;;;;;;0.00;0.00;;;;;;;9.27;44.01;103111.34;10403529;28;20128;-78
2022/04/16 22:57:36;;;;;;;0.00;0.00;;;;;;;9.19;44.01;103098.88;10411817;28;20034;-78
2022/04/16 23:02:38;;;;;;;0.00;0.00;;;;;;;9.26;43.25;103084.72;10408255;28;20055;-78
2022/04/16 23:07:40;;;;;;;0.00;0.00;;;;;;;9.27;43.07;103083.06;10406729;28;20064;-78
2022/04/16 23:12:42;;;;;;;4.63;1.67;;;;;;;9.36;43.16;103083.66;10412851;28;20041;-79
2022/04/16 23:17:43;;;;;;;0.00;0.00;;;;;;;9.18;43.04;103086.81;10406151;28;20033;-78
2022/04/16 23:22:45;;;;;;;0.00;0.00;;;;;;;9.39;43.82;103078.72;10412612;28;20116;-79
2022/04/16 23:27:46;;;;;;;0.00;0.00;;;;;;;9.28;44.06;103064.25;10411597;28;20065;-79
2022/04/16 23:32:49;;;;;;;0.00;0.00;;;;;;;9.24;43.30;103067.41;10413274;28;20125;-78
2022/04/16 23:37:50;;;;;;;0.00;0.00;;;;;;;9.22;43.54;103059.59;10411105;28;20042;-78
2022/04/16 23:42:53;;;;;;;0.70;0.43;;;;;;;9.30;43.39;103057.53;10412487;28;20054;-79
2022/04/16 23:47:54;;;;;;;0.20;0.20;;;;;;;9.19;43.64;103065.44;10413088;28;20555;-79
2022/04/16 23:52:56;;;;;;;0.00;0.00;;;;;;;9.16;43.85;103054.94;10412548;28;20370;-79
2022/04/16 23:57:58;;;;;;;0.00;0.00;;;;;;;9.24;43.25;103057.13;10428142;28;20079;-78
